Hibiki — JD3805 — position and weather

sailwx.info

Track history (hours):
 
Tides and Currents Weather Stations Pressure Air Temp Water Temp Dewpoint Dewpoint Depression Visibility Wind Speed Wind Dir Waves Ship Positions

Hibiki

Last reported at 2018-Jun-11 11:23 UTC. Time now 2018-Jun-19 20:15 UTC.
Position N 34°24' E 134°14'.
Warning: this ship's position is 8 days out of date.

Length 195 m; draft 6.5 m.

Type: Passenger vessel. MMSI: 431006223.

Date/timePositionNaut miles runAvg speedWind from/ knotsBaromVisibWave heightAir tempDewpointWater temp
2018-Jun-11 11:23N 34°24' E 134°14'821.9
2018-Jun-11 11:00N 34°26' E 134°23'1122.3
2018-Jun-11 10:30N 34°30' E 134°36'1223.3
2018-Jun-11 10:01N 34°34' E 134°49'1223.2
2018-Jun-11 09:31N 34°36' E 135°03'1121.3
2018-Jun-11 09:01N 34°35' E 135°16'714.3
2018-Jun-11 08:30N 34°31' E 135°24'0 0.1
2018-Jun-11 05:32N 34°31' E 135°24'0 0.0
2018-Jun-11 05:26N 34°31' E 135°24'0 0.0
2018-Jun-11 04:38N 34°31' E 135°24'0 0.0
2018-Jun-11 04:21N 34°31' E 135°24'0 0.0
2018-Jun-11 02:59N 34°31' E 135°24'0 0.0
2018-Jun-11 02:20N 34°31' E 135°24'0 0.0
2018-Jun-10 23:02N 34°31' E 135°24'0 0.0
2018-Jun-10 22:56N 34°31' E 135°24'0 0.0
2018-Jun-10 21:21N 34°31' E 135°24'0 0.0
2018-Jun-10 21:00N 34°31' E 135°24'2 4.3
2018-Jun-10 20:30N 34°33' E 135°22'918.6
2018-Jun-10 20:00N 34°35' E 135°11'1019.2
2018-Jun-10 19:30N 34°37' E 134°60'1019.7
2018-Jun-10 19:00N 34°33' E 134°49'1020.0
2018-Jun-10 18:30N 34°29' E 134°38'1121.8
2018-Jun-10 18:00N 34°25' E 134°25'1121.0
2018-Jun-10 17:30N 34°24' E 134°12'4 0.1
2018-Jun-09 11:36N 34°26' E 134°08'521.0
2018-Jun-09 11:22N 34°24' E 134°14'821.6
2018-Jun-09 11:00N 34°26' E 134°23'1122.0
2018-Jun-09 10:30N 34°29' E 134°36'1122.6
2018-Jun-09 10:01N 34°34' E 134°48'1122.8
2018-Jun-09 09:31N 34°37' E 135°01'1121.8
2018-Jun-09 09:00N 34°34' E 135°14'917.0
2018-Jun-09 08:30N 34°31' E 135°24'0 0.2
2018-Jun-09 08:00N 34°31' E 135°24'0 0.0
2018-Jun-09 06:39N 34°31' E 135°24'0 0.0
2018-Jun-09 06:30N 34°31' E 135°24'0 0.0
2018-Jun-09 06:00N 34°31' E 135°24'0 0.0
2018-Jun-09 05:27N 34°31' E 135°24'0 0.0
2018-Jun-09 05:00N 34°31' E 135°24'0 0.0
2018-Jun-09 04:21N 34°31' E 135°24'0 0.0
2018-Jun-09 04:00N 34°31' E 135°24'0 0.0
2018-Jun-09 03:30N 34°31' E 135°24'0 0.0
2018-Jun-09 02:57N 34°31' E 135°24'0 0.0
2018-Jun-09 02:30N 34°31' E 135°24'0 0.0
2018-Jun-09 02:00N 34°31' E 135°24'0 0.0
2018-Jun-09 01:21N 34°31' E 135°24'0 0.0
2018-Jun-09 01:00N 34°31' E 135°24'0 0.0
2018-Jun-09 00:15N 34°31' E 135°24'0 0.0
2018-Jun-09 00:00N 34°31' E 135°24'0 0.0
2018-Jun-08 23:24N 34°31' E 135°24'0 0.0
2018-Jun-08 23:00N 34°31' E 135°24'0 0.0
2018-Jun-08 22:30N 34°31' E 135°24'0 0.0
2018-Jun-08 22:00N 34°31' E 135°24'0 0.0
2018-Jun-08 21:30N 34°31' E 135°24'0 0.0
2018-Jun-08 21:00N 34°31' E 135°24'4 7.1
2018-Jun-08 20:30N 34°33' E 135°20'1121.9
2018-Jun-08 20:00N 34°34' E 135°07'1019.2
2018-Jun-08 19:30N 34°35' E 134°55'1121.6
2018-Jun-08 19:00N 34°31' E 134°44'1122.3
2018-Jun-08 18:30N 34°27' E 134°31'1122.5
2018-Jun-08 18:00N 34°23' E 134°18'4 0.1
2018-Jun-07 11:34N 34°24' E 134°14'321.5
2018-Jun-07 11:27N 34°25' E 134°17'1022.2
2018-Jun-07 11:00N 34°27' E 134°29'1122.2
2018-Jun-07 10:30N 34°31' E 134°41'1122.2
2018-Jun-07 10:00N 34°36' E 134°54'1020.4
2018-Jun-07 09:30N 34°36' E 135°06'1020.2
2018-Jun-07 09:01N 34°36' E 135°18'714.3
2018-Jun-07 08:31N 34°31' E 135°24'0 0.0
2018-Jun-07 04:35N 34°31' E 135°24'0 0.0
2018-Jun-07 04:29N 34°31' E 135°24'0 0.0
2018-Jun-07 03:59N 34°31' E 135°24'0 0.0
2018-Jun-06 20:55N 34°31' E 135°24'3 6.4
2018-Jun-06 20:30N 34°33' E 135°22'1019.8
2018-Jun-06 20:00N 34°34' E 135°10'1020.4
2018-Jun-06 19:30N 34°37' E 134°57'1121.3
2018-Jun-06 19:01N 34°32' E 134°46'1122.0
2018-Jun-06 18:30N 34°28' E 134°34'1122.1
2018-Jun-06 18:01N 34°24' E 134°21'5 0.2
2018-Jun-05 11:29N 34°24' E 134°15'1022.2
2018-Jun-05 11:00N 34°27' E 134°27'1122.3
2018-Jun-05 10:30N 34°31' E 134°39'1121.7
2018-Jun-05 10:00N 34°35' E 134°52'918.4
2018-Jun-05 09:30N 34°36' E 135°03'1120.9
2018-Jun-05 09:00N 34°35' E 135°16'815.8
2018-Jun-05 08:30N 34°31' E 135°24'0 0.1
2018-Jun-05 06:45N 34°31' E 135°24'0 0.0
2018-Jun-05 06:27N 34°31' E 135°24'0 0.0
2018-Jun-05 03:27N 34°31' E 135°24'0 0.0
2018-Jun-05 02:57N 34°31' E 135°24'0 0.0
2018-Jun-05 02:27N 34°31' E 135°24'0 0.0
2018-Jun-05 01:57N 34°31' E 135°24'0 0.0
2018-Jun-05 01:21N 34°31' E 135°24'0 0.0
2018-Jun-05 00:57N 34°31' E 135°24'0 0.0
2018-Jun-04 23:51N 34°31' E 135°24'0 0.0
2018-Jun-04 23:27N 34°31' E 135°24'0 0.0
2018-Jun-04 22:03N 34°31' E 135°24'0 0.0
2018-Jun-04 21:57N 34°31' E 135°24'0 0.0
2018-Jun-04 21:27N 34°31' E 135°24'0 0.0
2018-Jun-04 20:57N 34°31' E 135°24'3 7.4
2018-Jun-04 20:30N 34°33' E 135°20'918.1
2018-Jun-04 20:00N 34°33' E 135°10'1121.0
2018-Jun-04 19:29N 34°36' E 134°57'1021.7
2018-Jun-04 19:00N 34°32' E 134°46'1121.4
2018-Jun-04 18:30N 34°28' E 134°34'1121.9
2018-Jun-04 18:00N 34°24' E 134°22'1121.1
2018-Jun-04 17:30N 34°25' E 134°09'5 0.2
2018-Jun-03 11:55N 34°26' E 134°02'1022.6
2018-Jun-03 11:29N 34°24' E 134°14'1122.5
2018-Jun-03 11:00N 34°27' E 134°27'1122.0
2018-Jun-03 10:30N 34°31' E 134°39'1122.0
2018-Jun-03 10:00N 34°35' E 134°52'1019.4
2018-Jun-03 09:30N 34°36' E 135°03'1020.7
2018-Jun-03 09:00N 34°35' E 135°16'815.3
2018-Jun-03 08:30N 34°31' E 135°24'0 0.1
2018-Jun-03 08:00N 34°31' E 135°24'0 0.0
2018-Jun-03 07:30N 34°31' E 135°24'0 0.0
2018-Jun-03 07:01N 34°31' E 135°24'0 0.0
2018-Jun-03 06:29N 34°31' E 135°24'0 0.0
2018-Jun-03 05:59N 34°31' E 135°24'0 0.0
2018-Jun-03 05:29N 34°31' E 135°24'0 0.0
2018-Jun-03 04:59N 34°31' E 135°24'0 0.0
2018-Jun-03 04:29N 34°31' E 135°24'0 0.0
2018-Jun-03 03:59N 34°31' E 135°24'0 0.0
2018-Jun-03 03:29N 34°31' E 135°24'0 0.0
2018-Jun-03 02:56N 34°31' E 135°24'0 0.0
2018-Jun-03 02:23N 34°31' E 135°24'0 0.0
2018-Jun-03 01:59N 34°31' E 135°24'0 0.0
2018-Jun-03 01:20N 34°31' E 135°24'0 0.0
2018-Jun-03 00:59N 34°31' E 135°24'0 0.0
2018-Jun-03 00:17N 34°31' E 135°24'0 0.0
2018-Jun-02 23:59N 34°31' E 135°24'0 0.0
2018-Jun-02 23:29N 34°31' E 135°24'0 0.0
2018-Jun-02 22:32N 34°31' E 135°24'0 0.0
2018-Jun-02 22:26N 34°31' E 135°24'0 0.0
2018-Jun-02 21:26N 34°31' E 135°24'0 0.0
2018-Jun-02 21:00N 34°31' E 135°24'4 7.6
2018-Jun-02 20:30N 34°33' E 135°20'917.4
2018-Jun-02 20:00N 34°34' E 135°09'918.6
2018-Jun-02 19:30N 34°37' E 134°59'918.5
2018-Jun-02 19:00N 34°33' E 134°49'1020.4
2018-Jun-02 18:30N 34°28' E 134°38'1121.6
2018-Jun-02 18:00N 34°24' E 134°25'1020.9
2018-Jun-02 17:30N 34°24' E 134°13'0 0.0
2018-Jun-01 11:30N 34°24' E 134°13'  
Track history (hours):
 
Tides and Currents Weather Stations Pressure Air Temp Water Temp Dewpoint Dewpoint Depression Visibility Wind Speed Wind Dir Waves Ship Positions

Hibiki

Last reported at 2018-Jun-11 11:23 UTC. Time now 2018-Jun-19 20:15 UTC.
Position N 34°24' E 134°14'.
Warning: this ship's position is 8 days out of date.

Length 195 m; draft 6.5 m.

Type: Passenger vessel. MMSI: 431006223.

Date/timePositionNaut miles runAvg speedWind from/ knotsBaromVisibWave heightAir tempDewpointWater temp
2018-Jun-11 11:23N 34°24' E 134°14'821.9
2018-Jun-11 11:00N 34°26' E 134°23'1122.3
2018-Jun-11 10:30N 34°30' E 134°36'1223.3
2018-Jun-11 10:01N 34°34' E 134°49'1223.2
2018-Jun-11 09:31N 34°36' E 135°03'1121.3
2018-Jun-11 09:01N 34°35' E 135°16'714.3
2018-Jun-11 08:30N 34°31' E 135°24'0 0.1
2018-Jun-11 05:32N 34°31' E 135°24'0 0.0
2018-Jun-11 05:26N 34°31' E 135°24'0 0.0
2018-Jun-11 04:38N 34°31' E 135°24'0 0.0
2018-Jun-11 04:21N 34°31' E 135°24'0 0.0
2018-Jun-11 02:59N 34°31' E 135°24'0 0.0
2018-Jun-11 02:20N 34°31' E 135°24'0 0.0
2018-Jun-10 23:02N 34°31' E 135°24'0 0.0
2018-Jun-10 22:56N 34°31' E 135°24'0 0.0
2018-Jun-10 21:21N 34°31' E 135°24'0 0.0
2018-Jun-10 21:00N 34°31' E 135°24'2 4.3
2018-Jun-10 20:30N 34°33' E 135°22'918.6
2018-Jun-10 20:00N 34°35' E 135°11'1019.2
2018-Jun-10 19:30N 34°37' E 134°60'1019.7
2018-Jun-10 19:00N 34°33' E 134°49'1020.0
2018-Jun-10 18:30N 34°29' E 134°38'1121.8
2018-Jun-10 18:00N 34°25' E 134°25'1121.0
2018-Jun-10 17:30N 34°24' E 134°12'4 0.1
2018-Jun-09 11:36N 34°26' E 134°08'521.0
2018-Jun-09 11:22N 34°24' E 134°14'821.6
2018-Jun-09 11:00N 34°26' E 134°23'1122.0
2018-Jun-09 10:30N 34°29' E 134°36'1122.6
2018-Jun-09 10:01N 34°34' E 134°48'1122.8
2018-Jun-09 09:31N 34°37' E 135°01'1121.8
2018-Jun-09 09:00N 34°34' E 135°14'917.0
2018-Jun-09 08:30N 34°31' E 135°24'0 0.2
2018-Jun-09 08:00N 34°31' E 135°24'0 0.0
2018-Jun-09 06:39N 34°31' E 135°24'0 0.0
2018-Jun-09 06:30N 34°31' E 135°24'0 0.0
2018-Jun-09 06:00N 34°31' E 135°24'0 0.0
2018-Jun-09 05:27N 34°31' E 135°24'0 0.0
2018-Jun-09 05:00N 34°31' E 135°24'0 0.0
2018-Jun-09 04:21N 34°31' E 135°24'0 0.0
2018-Jun-09 04:00N 34°31' E 135°24'0 0.0
2018-Jun-09 03:30N 34°31' E 135°24'0 0.0
2018-Jun-09 02:57N 34°31' E 135°24'0 0.0
2018-Jun-09 02:30N 34°31' E 135°24'0 0.0
2018-Jun-09 02:00N 34°31' E 135°24'0 0.0
2018-Jun-09 01:21N 34°31' E 135°24'0 0.0
2018-Jun-09 01:00N 34°31' E 135°24'0 0.0
2018-Jun-09 00:15N 34°31' E 135°24'0 0.0
2018-Jun-09 00:00N 34°31' E 135°24'0 0.0
2018-Jun-08 23:24N 34°31' E 135°24'0 0.0
2018-Jun-08 23:00N 34°31' E 135°24'0 0.0
2018-Jun-08 22:30N 34°31' E 135°24'0 0.0
2018-Jun-08 22:00N 34°31' E 135°24'0 0.0
2018-Jun-08 21:30N 34°31' E 135°24'0 0.0
2018-Jun-08 21:00N 34°31' E 135°24'4 7.1
2018-Jun-08 20:30N 34°33' E 135°20'1121.9
2018-Jun-08 20:00N 34°34' E 135°07'1019.2
2018-Jun-08 19:30N 34°35' E 134°55'1121.6
2018-Jun-08 19:00N 34°31' E 134°44'1122.3
2018-Jun-08 18:30N 34°27' E 134°31'1122.5
2018-Jun-08 18:00N 34°23' E 134°18'4 0.1
2018-Jun-07 11:34N 34°24' E 134°14'321.5
2018-Jun-07 11:27N 34°25' E 134°17'1022.2
2018-Jun-07 11:00N 34°27' E 134°29'1122.2
2018-Jun-07 10:30N 34°31' E 134°41'1122.2
2018-Jun-07 10:00N 34°36' E 134°54'1020.4
2018-Jun-07 09:30N 34°36' E 135°06'1020.2
2018-Jun-07 09:01N 34°36' E 135°18'714.3
2018-Jun-07 08:31N 34°31' E 135°24'0 0.0
2018-Jun-07 04:35N 34°31' E 135°24'0 0.0
2018-Jun-07 04:29N 34°31' E 135°24'0 0.0
2018-Jun-07 03:59N 34°31' E 135°24'0 0.0
2018-Jun-06 20:55N 34°31' E 135°24'3 6.4
2018-Jun-06 20:30N 34°33' E 135°22'1019.8
2018-Jun-06 20:00N 34°34' E 135°10'1020.4
2018-Jun-06 19:30N 34°37' E 134°57'1121.3
2018-Jun-06 19:01N 34°32' E 134°46'1122.0
2018-Jun-06 18:30N 34°28' E 134°34'1122.1
2018-Jun-06 18:01N 34°24' E 134°21'5 0.2
2018-Jun-05 11:29N 34°24' E 134°15'1022.2
2018-Jun-05 11:00N 34°27' E 134°27'1122.3
2018-Jun-05 10:30N 34°31' E 134°39'1121.7
2018-Jun-05 10:00N 34°35' E 134°52'918.4
2018-Jun-05 09:30N 34°36' E 135°03'1120.9
2018-Jun-05 09:00N 34°35' E 135°16'815.8
2018-Jun-05 08:30N 34°31' E 135°24'0 0.1
2018-Jun-05 06:45N 34°31' E 135°24'0 0.0
2018-Jun-05 06:27N 34°31' E 135°24'0 0.0
2018-Jun-05 03:27N 34°31' E 135°24'0 0.0
2018-Jun-05 02:57N 34°31' E 135°24'0 0.0
2018-Jun-05 02:27N 34°31' E 135°24'0 0.0
2018-Jun-05 01:57N 34°31' E 135°24'0 0.0
2018-Jun-05 01:21N 34°31' E 135°24'0 0.0
2018-Jun-05 00:57N 34°31' E 135°24'0 0.0
2018-Jun-04 23:51N 34°31' E 135°24'0 0.0
2018-Jun-04 23:27N 34°31' E 135°24'0 0.0
2018-Jun-04 22:03N 34°31' E 135°24'0 0.0
2018-Jun-04 21:57N 34°31' E 135°24'0 0.0
2018-Jun-04 21:27N 34°31' E 135°24'0 0.0
2018-Jun-04 20:57N 34°31' E 135°24'3 7.4
2018-Jun-04 20:30N 34°33' E 135°20'918.1
2018-Jun-04 20:00N 34°33' E 135°10'1121.0
2018-Jun-04 19:29N 34°36' E 134°57'1021.7
2018-Jun-04 19:00N 34°32' E 134°46'1121.4
2018-Jun-04 18:30N 34°28' E 134°34'1121.9
2018-Jun-04 18:00N 34°24' E 134°22'1121.1
2018-Jun-04 17:30N 34°25' E 134°09'5 0.2
2018-Jun-03 11:55N 34°26' E 134°02'1022.6
2018-Jun-03 11:29N 34°24' E 134°14'1122.5
2018-Jun-03 11:00N 34°27' E 134°27'1122.0
2018-Jun-03 10:30N 34°31' E 134°39'1122.0
2018-Jun-03 10:00N 34°35' E 134°52'1019.4
2018-Jun-03 09:30N 34°36' E 135°03'1020.7
2018-Jun-03 09:00N 34°35' E 135°16'815.3
2018-Jun-03 08:30N 34°31' E 135°24'0 0.1
2018-Jun-03 08:00N 34°31' E 135°24'0 0.0
2018-Jun-03 07:30N 34°31' E 135°24'0 0.0
2018-Jun-03 07:01N 34°31' E 135°24'0 0.0
2018-Jun-03 06:29N 34°31' E 135°24'0 0.0
2018-Jun-03 05:59N 34°31' E 135°24'0 0.0
2018-Jun-03 05:29N 34°31' E 135°24'0 0.0
2018-Jun-03 04:59N 34°31' E 135°24'0 0.0
2018-Jun-03 04:29N 34°31' E 135°24'0 0.0
2018-Jun-03 03:59N 34°31' E 135°24'0 0.0
2018-Jun-03 03:29N 34°31' E 135°24'0 0.0
2018-Jun-03 02:56N 34°31' E 135°24'0 0.0
2018-Jun-03 02:23N 34°31' E 135°24'0 0.0
2018-Jun-03 01:59N 34°31' E 135°24'0 0.0
2018-Jun-03 01:20N 34°31' E 135°24'0 0.0
2018-Jun-03 00:59N 34°31' E 135°24'0 0.0
2018-Jun-03 00:17N 34°31' E 135°24'0 0.0
2018-Jun-02 23:59N 34°31' E 135°24'0 0.0
2018-Jun-02 23:29N 34°31' E 135°24'0 0.0
2018-Jun-02 22:32N 34°31' E 135°24'0 0.0
2018-Jun-02 22:26N 34°31' E 135°24'0 0.0
2018-Jun-02 21:26N 34°31' E 135°24'0 0.0
2018-Jun-02 21:00N 34°31' E 135°24'4 7.6
2018-Jun-02 20:30N 34°33' E 135°20'917.4
2018-Jun-02 20:00N 34°34' E 135°09'918.6
2018-Jun-02 19:30N 34°37' E 134°59'918.5
2018-Jun-02 19:00N 34°33' E 134°49'1020.4
2018-Jun-02 18:30N 34°28' E 134°38'1121.6
2018-Jun-02 18:00N 34°24' E 134°25'1020.9
2018-Jun-02 17:30N 34°24' E 134°13'0 0.0
2018-Jun-01 11:30N 34°24' E 134°13'  

Dump ship's entire track history